createdAt,value
2018-08-25T00:00:43.304Z,17.10
2018-08-25T00:02:48.217Z,17.20
2018-08-25T00:04:53.425Z,17.10
2018-08-25T00:06:58.403Z,17.20
2018-08-25T00:09:03.633Z,17.20
2018-08-25T00:11:09.930Z,17.10
2018-08-25T00:13:14.924Z,17.10
2018-08-25T00:15:19.981Z,17.00
2018-08-25T00:17:24.869Z,17.00
2018-08-25T00:19:29.702Z,16.90
2018-08-25T00:21:34.523Z,16.90
2018-08-25T00:23:39.448Z,16.90
2018-08-25T00:25:44.294Z,16.90
2018-08-25T00:27:49.183Z,16.80
2018-08-25T00:29:54.122Z,16.90
2018-08-25T00:31:59.940Z,16.80
2018-08-25T00:34:04.973Z,16.80
2018-08-25T00:36:10.658Z,16.80
2018-08-25T00:38:15.579Z,16.80
2018-08-25T00:40:22.502Z,16.80
2018-08-25T00:42:27.371Z,16.80
2018-08-25T00:44:32.242Z,16.80
2018-08-25T00:46:37.354Z,16.80
2018-08-25T00:48:44.549Z,16.90
2018-08-25T00:50:49.958Z,16.80
2018-08-25T00:52:54.834Z,16.80
2018-08-25T00:54:59.760Z,16.80
2018-08-25T00:57:04.753Z,16.80
2018-08-25T00:59:09.531Z,16.80
2018-08-25T01:01:14.411Z,16.90
2018-08-25T01:03:19.530Z,16.80
2018-08-25T01:05:25.292Z,16.90
2018-08-25T01:07:30.170Z,16.80
2018-08-25T01:09:35.095Z,16.80
2018-08-25T01:11:40.232Z,16.80
2018-08-25T01:13:45.097Z,16.90
2018-08-25T01:15:50.000Z,16.80
2018-08-25T01:17:54.950Z,16.80
2018-08-25T01:19:59.794Z,16.80
2018-08-25T01:22:04.718Z,16.70
2018-08-25T01:24:09.531Z,16.70
2018-08-25T01:26:14.477Z,16.70
2018-08-25T01:28:19.540Z,16.70
2018-08-25T01:30:24.369Z,16.80
2018-08-25T01:32:29.213Z,16.80
2018-08-25T01:34:34.079Z,16.70
2018-08-25T01:36:38.886Z,16.70
2018-08-25T01:38:43.706Z,16.70
2018-08-25T01:40:48.650Z,16.70
2018-08-25T01:42:53.629Z,16.70
2018-08-25T01:44:58.457Z,16.70
2018-08-25T01:47:05.920Z,16.70
2018-08-25T01:49:10.743Z,16.80
2018-08-25T01:51:15.582Z,16.80
2018-08-25T01:53:20.586Z,16.80
2018-08-25T01:55:26.621Z,16.70
2018-08-25T01:57:32.274Z,16.70
2018-08-25T01:59:37.227Z,16.80
2018-08-25T02:01:42.120Z,16.70
2018-08-25T02:03:46.981Z,16.70
2018-08-25T02:05:51.899Z,16.70
2018-08-25T02:07:56.676Z,16.70
2018-08-25T02:10:01.678Z,16.70
2018-08-25T02:12:06.684Z,16.80
2018-08-25T02:14:11.905Z,16.80
2018-08-25T02:16:16.836Z,16.80
2018-08-25T02:18:21.779Z,16.70
2018-08-25T02:20:27.316Z,16.70
2018-08-25T02:22:33.086Z,16.70
2018-08-25T02:24:38.062Z,16.70
2018-08-25T02:26:42.918Z,16.70
2018-08-25T02:28:57.641Z,16.70
2018-08-25T02:31:02.557Z,16.70
2018-08-25T02:33:07.408Z,16.60
2018-08-25T02:35:12.262Z,16.60
2018-08-25T02:37:17.256Z,16.60
2018-08-25T02:39:22.284Z,16.60
2018-08-25T02:41:28.162Z,16.50
2018-08-25T02:43:33.108Z,16.50
2018-08-25T02:45:37.955Z,16.50
2018-08-25T02:47:43.067Z,16.50
2018-08-25T02:49:47.961Z,16.50
2018-08-25T02:51:52.897Z,16.60
2018-08-25T02:53:57.843Z,16.50
2018-08-25T02:56:02.793Z,16.50
2018-08-25T02:58:07.802Z,16.50
2018-08-25T03:00:12.763Z,16.40
2018-08-25T03:02:17.696Z,16.40
2018-08-25T03:04:22.602Z,16.40
2018-08-25T03:06:27.948Z,16.30
2018-08-25T03:08:32.955Z,16.30
2018-08-25T03:10:37.915Z,16.20
2018-08-25T03:12:42.920Z,16.20
2018-08-25T03:14:47.771Z,16.20
2018-08-25T03:16:53.519Z,16.20
2018-08-25T03:18:58.513Z,16.20
2018-08-25T03:21:03.494Z,16.20
2018-08-25T03:23:08.449Z,16.20
2018-08-25T03:25:13.541Z,16.00
2018-08-25T03:27:18.388Z,15.80
2018-08-25T03:29:23.364Z,15.60
2018-08-25T03:31:29.505Z,15.30
2018-08-25T03:33:34.484Z,15.10
2018-08-25T03:35:39.532Z,14.90
2018-08-25T03:37:44.589Z,14.70
2018-08-25T03:39:49.575Z,14.60
2018-08-25T03:41:54.609Z,14.50
2018-08-25T03:43:59.595Z,14.50
2018-08-25T03:46:04.496Z,14.40
2018-08-25T03:48:09.377Z,14.40
2018-08-25T03:50:14.447Z,14.30
2018-08-25T03:52:19.478Z,14.20
2018-08-25T03:54:24.588Z,14.20
2018-08-25T03:56:29.596Z,14.20
2018-08-25T03:58:36.363Z,14.20
2018-08-25T04:00:41.960Z,14.10
2018-08-25T04:02:47.195Z,14.10
2018-08-25T04:04:52.130Z,14.10
2018-08-25T04:06:57.269Z,14.10
2018-08-25T04:09:02.645Z,14.00
2018-08-25T04:11:07.644Z,14.00
2018-08-25T04:13:12.796Z,14.10
2018-08-25T04:15:17.664Z,14.10
2018-08-25T04:17:22.609Z,14.10
2018-08-25T04:19:27.682Z,14.00
2018-08-25T04:21:33.202Z,14.00
2018-08-25T04:23:38.088Z,14.00
2018-08-25T04:25:43.442Z,14.10
2018-08-25T04:27:48.261Z,14.20
2018-08-25T04:29:53.249Z,14.20
2018-08-25T04:31:58.201Z,14.20
2018-08-25T04:34:03.288Z,14.20
2018-08-25T04:36:08.115Z,14.20
2018-08-25T04:38:13.037Z,14.30
2018-08-25T04:40:18.072Z,14.30
2018-08-25T04:42:23.072Z,14.30
2018-08-25T04:44:28.004Z,14.30
2018-08-25T04:46:32.857Z,14.40
2018-08-25T04:48:37.885Z,14.40
2018-08-25T04:50:42.781Z,14.40
2018-08-25T04:52:47.718Z,14.30
2018-08-25T04:54:52.573Z,14.30
2018-08-25T04:56:58.518Z,14.30
2018-08-25T04:59:03.596Z,14.20
2018-08-25T05:01:08.910Z,14.10
2018-08-25T05:03:13.937Z,14.10
2018-08-25T05:05:19.809Z,14.20
2018-08-25T05:07:24.885Z,14.20
2018-08-25T05:09:29.837Z,14.10
2018-08-25T05:11:36.899Z,14.00
2018-08-25T05:13:42.184Z,14.10
2018-08-25T05:15:47.092Z,14.00
2018-08-25T05:17:52.691Z,13.90
2018-08-25T05:19:57.505Z,13.90
2018-08-25T05:22:02.832Z,14.00
2018-08-25T05:24:07.917Z,13.90
2018-08-25T05:26:13.099Z,14.00
2018-08-25T05:28:19.842Z,14.00
2018-08-25T05:30:24.937Z,13.90
2018-08-25T05:32:30.217Z,14.00
2018-08-25T05:34:35.251Z,14.00
2018-08-25T05:36:41.025Z,14.10
2018-08-25T05:38:46.176Z,14.00
2018-08-25T05:40:51.501Z,14.10
2018-08-25T05:42:56.480Z,14.10
2018-08-25T05:45:03.041Z,14.10
2018-08-25T05:47:08.096Z,14.00
2018-08-25T05:49:13.171Z,13.90
2018-08-25T05:51:18.210Z,14.00
2018-08-25T05:53:24.570Z,14.00
2018-08-25T05:55:29.921Z,14.10
2018-08-25T05:57:34.897Z,14.10
2018-08-25T05:59:39.770Z,14.10
2018-08-25T06:01:45.554Z,14.20
2018-08-25T06:03:50.712Z,14.20
2018-08-25T06:05:55.693Z,14.10
2018-08-25T06:08:00.755Z,14.10
2018-08-25T06:10:05.878Z,14.10
2018-08-25T06:12:10.742Z,14.30
2018-08-25T06:14:15.607Z,14.20
2018-08-25T06:16:20.781Z,14.40
2018-08-25T06:18:26.246Z,14.30
2018-08-25T06:20:31.567Z,14.40
2018-08-25T06:22:36.519Z,14.40
2018-08-25T06:24:43.040Z,14.40
2018-08-25T06:26:48.145Z,14.40
2018-08-25T06:28:53.115Z,14.40
2018-08-25T06:30:58.415Z,14.40
2018-08-25T06:33:03.370Z,14.40
2018-08-25T06:35:08.589Z,14.30
2018-08-25T06:37:13.814Z,14.30
2018-08-25T06:39:18.839Z,14.40
2018-08-25T06:41:24.200Z,14.40
2018-08-25T06:43:29.628Z,14.40
2018-08-25T06:45:36.418Z,14.50
2018-08-25T06:47:41.458Z,14.50
2018-08-25T06:49:46.857Z,14.60
2018-08-25T06:51:54.349Z,14.60
2018-08-25T06:53:59.297Z,14.60
2018-08-25T06:56:04.647Z,14.60
2018-08-25T06:58:15.270Z,14.60
2018-08-25T07:00:25.716Z,14.70
2018-08-25T07:02:33.652Z,14.70
2018-08-25T07:04:38.758Z,14.50
2018-08-25T07:06:46.467Z,14.50
2018-08-25T07:08:53.096Z,14.70
2018-08-25T07:11:02.177Z,14.80
2018-08-25T07:13:09.926Z,14.70
2018-08-25T07:15:17.865Z,14.70
2018-08-25T07:17:24.690Z,14.70
2018-08-25T07:19:31.623Z,14.70
2018-08-25T07:21:36.799Z,14.70
2018-08-25T07:23:43.954Z,14.70
2018-08-25T07:25:49.852Z,14.70
2018-08-25T07:27:55.500Z,14.70
2018-08-25T07:30:02.395Z,14.70
2018-08-25T07:32:08.296Z,14.80
2018-08-25T07:34:13.225Z,14.80
2018-08-25T07:36:18.179Z,14.90
2018-08-25T07:38:23.167Z,14.90
2018-08-25T07:40:28.186Z,14.90
2018-08-25T07:42:33.324Z,14.90
2018-08-25T07:44:45.027Z,14.90
2018-08-25T07:46:50.460Z,15.10
2018-08-25T07:48:57.251Z,15.10
2018-08-25T07:51:04.423Z,15.10
2018-08-25T07:53:09.233Z,15.20
2018-08-25T07:55:15.499Z,15.20
2018-08-25T07:57:22.883Z,15.20
2018-08-25T07:59:27.888Z,15.30
2018-08-25T08:01:32.811Z,15.40
2018-08-25T08:03:37.740Z,15.50
2018-08-25T08:05:42.625Z,15.60
2018-08-25T08:07:47.497Z,15.60
2018-08-25T08:09:52.326Z,15.60
2018-08-25T08:11:57.765Z,15.60
2018-08-25T08:14:02.913Z,15.50
2018-08-25T08:16:08.735Z,15.60
2018-08-25T08:18:13.617Z,15.70
2018-08-25T08:20:21.994Z,15.70
2018-08-25T08:22:26.875Z,15.70
2018-08-25T08:24:31.746Z,15.60
2018-08-25T08:26:36.670Z,15.50
2018-08-25T08:28:41.787Z,15.60
2018-08-25T08:30:46.672Z,15.60
2018-08-25T08:35:12.005Z,15.80
2018-08-25T08:37:17.373Z,15.90
2018-08-25T08:39:23.143Z,16.00
2018-08-25T08:41:28.012Z,16.00
2018-08-25T08:43:32.810Z,16.00
2018-08-25T08:45:37.915Z,16.00
2018-08-25T08:47:42.798Z,16.10
2018-08-25T08:49:47.737Z,16.00
2018-08-25T08:51:52.927Z,15.80
2018-08-25T08:53:58.399Z,15.70
2018-08-25T08:56:10.103Z,15.80
2018-08-25T08:58:15.784Z,15.80
2018-08-25T09:00:20.748Z,15.90
2018-08-25T09:02:25.718Z,16.00
2018-08-25T09:04:30.699Z,16.00
2018-08-25T09:06:36.087Z,16.20
2018-08-25T09:10:44.424Z,16.30
2018-08-25T09:12:49.405Z,16.20
2018-08-25T09:14:54.358Z,16.20
2018-08-25T09:17:00.085Z,16.20
2018-08-25T09:19:06.985Z,16.30
2018-08-25T09:21:15.018Z,16.10
2018-08-25T09:23:21.243Z,16.10
2018-08-25T09:25:27.018Z,16.00
2018-08-25T09:27:33.312Z,16.00
2018-08-25T09:29:39.885Z,16.10
2018-08-25T09:31:45.275Z,16.10
2018-08-25T09:33:51.249Z,16.20
2018-08-25T09:35:56.259Z,16.40
2018-08-25T09:38:02.300Z,16.30
2018-08-25T09:40:07.324Z,16.30
2018-08-25T09:42:12.394Z,16.50
2018-08-25T09:44:19.174Z,16.50
2018-08-25T09:46:24.207Z,16.60
2018-08-25T09:48:34.275Z,16.70
2018-08-25T09:50:39.149Z,16.80
2018-08-25T09:52:46.283Z,16.90
2018-08-25T09:54:52.380Z,16.80
2018-08-25T09:56:57.414Z,16.70
2018-08-25T09:59:06.201Z,16.60
2018-08-25T10:01:16.228Z,16.70
2018-08-25T10:03:21.448Z,16.70
2018-08-25T10:05:26.655Z,16.80
2018-08-25T10:07:31.788Z,16.80
2018-08-25T10:09:36.943Z,16.90
2018-08-25T10:11:48.871Z,16.90
2018-08-25T10:13:58.420Z,16.90
2018-08-25T10:16:12.200Z,17.00
2018-08-25T10:18:39.345Z,17.30
2018-08-25T10:20:46.628Z,17.30
2018-08-25T10:22:51.843Z,17.40
2018-08-25T10:24:57.680Z,17.40
2018-08-25T10:27:03.226Z,17.50
2018-08-25T10:29:08.260Z,17.60
2018-08-25T10:31:13.179Z,17.60
2018-08-25T10:33:19.669Z,17.40
2018-08-25T10:35:25.604Z,17.20
2018-08-25T10:37:30.508Z,17.20
2018-08-25T10:39:35.665Z,17.20
2018-08-25T10:41:40.503Z,17.30
2018-08-25T10:43:46.412Z,17.40
2018-08-25T10:46:58.899Z,17.40
2018-08-25T10:49:03.917Z,17.50
2018-08-25T10:51:08.888Z,17.50
2018-08-25T10:53:13.875Z,17.60
2018-08-25T10:55:18.911Z,17.50
2018-08-25T10:57:23.798Z,17.60
2018-08-25T10:59:29.343Z,17.50
2018-08-25T11:01:34.815Z,17.60
2018-08-25T11:03:40.298Z,17.70
2018-08-25T11:05:45.539Z,17.70
2018-08-25T11:07:50.729Z,17.60
2018-08-25T11:09:55.824Z,17.60
2018-08-25T11:12:01.702Z,17.60
2018-08-25T11:14:22.685Z,17.70
2018-08-25T11:16:28.871Z,17.70
2018-08-25T11:18:34.915Z,17.70
2018-08-25T11:20:40.683Z,17.60
2018-08-25T11:22:45.974Z,17.40
2018-08-25T11:24:51.085Z,17.20
2018-08-25T11:26:55.998Z,17.10
2018-08-25T11:29:01.987Z,17.10
2018-08-25T11:31:07.143Z,17.20
2018-08-25T11:33:12.432Z,17.30
2018-08-25T11:35:17.718Z,17.50
2018-08-25T11:37:23.562Z,17.70
2018-08-25T11:39:28.784Z,17.90
2018-08-25T11:41:33.597Z,17.80
2018-08-25T11:43:38.437Z,17.90
2018-08-25T11:45:43.332Z,18.00
2018-08-25T11:47:50.257Z,17.90
2018-08-25T11:50:02.726Z,17.70
2018-08-25T11:52:11.086Z,17.60
2018-08-25T11:54:18.451Z,17.50
2018-08-25T11:56:27.956Z,17.50
2018-08-25T11:58:33.471Z,17.40
2018-08-25T12:00:38.767Z,17.50
2018-08-25T12:02:44.088Z,17.70
2018-08-25T12:04:49.700Z,17.80
2018-08-25T12:06:55.007Z,18.00
2018-08-25T12:09:00.585Z,18.00
2018-08-25T12:11:06.567Z,18.10
2018-08-25T12:13:12.228Z,18.10
2018-08-25T12:15:17.861Z,18.10
2018-08-25T12:17:26.522Z,18.20
2018-08-25T12:19:32.334Z,18.00
2018-08-25T12:21:37.739Z,18.00
2018-08-25T12:23:43.077Z,17.90
2018-08-25T12:25:54.230Z,17.80
2018-08-25T12:28:00.725Z,17.90
2018-08-25T12:30:06.757Z,17.90
2018-08-25T12:32:11.870Z,17.80
2018-08-25T12:34:16.813Z,17.70
2018-08-25T12:36:22.559Z,17.80
2018-08-25T12:38:29.111Z,17.70
2018-08-25T12:40:40.386Z,17.80
2018-08-25T12:42:50.726Z,17.60
2018-08-25T12:44:59.880Z,17.60
2018-08-25T12:47:12.964Z,17.70
2018-08-25T12:49:21.587Z,17.60
2018-08-25T12:51:30.301Z,17.60
2018-08-25T12:53:41.669Z,17.60
2018-08-25T12:55:52.735Z,17.70
2018-08-25T12:57:58.169Z,17.70
2018-08-25T13:00:11.563Z,17.90
2018-08-25T13:02:22.785Z,17.90
2018-08-25T13:04:32.014Z,18.00
2018-08-25T13:06:42.782Z,18.10
2018-08-25T13:08:52.832Z,18.10
2018-08-25T13:11:00.658Z,18.20
2018-08-25T13:13:29.457Z,18.20
2018-08-25T13:15:37.874Z,18.40
2018-08-25T13:17:49.807Z,18.40
2018-08-25T13:19:55.602Z,18.40
2018-08-25T13:22:00.849Z,18.40
2018-08-25T13:24:06.983Z,18.20
2018-08-25T13:26:23.659Z,18.00
2018-08-25T13:28:30.528Z,17.90
2018-08-25T13:30:35.305Z,17.90
2018-08-25T13:32:40.118Z,17.90
2018-08-25T13:34:45.149Z,18.00
2018-08-25T13:36:51.103Z,18.00
2018-08-25T13:38:56.324Z,18.10
2018-08-25T13:41:05.560Z,18.30
2018-08-25T13:43:15.087Z,18.40
2018-08-25T13:45:21.299Z,18.30
2018-08-25T13:47:26.285Z,18.10
2018-08-25T13:49:32.559Z,17.90
2018-08-25T13:51:39.115Z,17.70
2018-08-25T13:53:44.387Z,17.60
2018-08-25T13:55:49.593Z,17.50
2018-08-25T13:57:54.841Z,17.60
2018-08-25T14:00:00.480Z,17.60
2018-08-25T14:02:06.382Z,17.70
2018-08-25T14:04:12.631Z,17.70
2018-08-25T14:06:18.088Z,17.70
2018-08-25T14:08:23.252Z,17.70
2018-08-25T14:10:28.143Z,17.70
2018-08-25T14:12:33.151Z,17.70
2018-08-25T14:14:38.299Z,17.70
2018-08-25T14:16:44.785Z,17.70
2018-08-25T14:18:52.429Z,17.70
2018-08-25T14:20:57.887Z,17.80
2018-08-25T14:23:04.584Z,17.90
2018-08-25T14:25:09.387Z,17.80
2018-08-25T14:27:16.052Z,17.80
2018-08-25T14:29:21.068Z,17.80
2018-08-25T14:31:27.023Z,17.80
2018-08-25T14:33:31.842Z,17.90
2018-08-25T14:35:37.323Z,18.00
2018-08-25T14:37:42.194Z,18.20
2018-08-25T14:39:47.988Z,18.30
2018-08-25T14:41:54.637Z,18.40
2018-08-25T14:44:01.726Z,18.30
2018-08-25T14:46:07.382Z,18.30
2018-08-25T14:48:14.178Z,18.20
2018-08-25T14:50:19.227Z,18.00
2018-08-25T14:52:27.008Z,17.90
2018-08-25T14:54:35.919Z,17.70
2018-08-25T14:56:42.483Z,17.50
2018-08-25T14:58:47.387Z,17.40
2018-08-25T15:00:52.251Z,17.20
2018-08-25T15:02:57.282Z,17.10
2018-08-25T15:05:03.102Z,16.90
2018-08-25T15:07:10.199Z,16.80
2018-08-25T15:09:16.615Z,16.60
2018-08-25T15:11:22.523Z,16.60
2018-08-25T15:13:30.509Z,16.60
2018-08-25T15:15:36.852Z,16.90
2018-08-25T15:17:42.847Z,16.90
2018-08-25T15:19:47.769Z,17.00
2018-08-25T15:23:58.078Z,17.20
2018-08-25T15:26:03.571Z,17.60
2018-08-25T15:28:08.709Z,17.50
2018-08-25T15:30:13.674Z,17.50
2018-08-25T15:32:18.964Z,17.50
2018-08-25T15:34:24.218Z,17.40
2018-08-25T15:36:29.328Z,17.40
2018-08-25T15:38:34.460Z,17.50
2018-08-25T15:40:41.674Z,17.50
2018-08-25T15:42:47.972Z,17.60
2018-08-25T15:44:53.601Z,17.60
2018-08-25T15:47:00.684Z,17.50
2018-08-25T15:49:07.119Z,17.40
2018-08-25T15:51:13.569Z,17.60
2018-08-25T15:53:20.702Z,17.70
2018-08-25T15:55:27.775Z,17.80
2018-08-25T15:57:32.868Z,17.90
2018-08-25T15:59:38.203Z,18.30
2018-08-25T16:01:43.592Z,18.60
2018-08-25T16:03:48.473Z,18.80
2018-08-25T16:08:03.812Z,19.10
2018-08-25T16:10:08.819Z,19.20
2018-08-25T16:12:13.621Z,18.90
2018-08-25T16:14:18.468Z,18.50
2018-08-25T16:16:23.386Z,17.90
2018-08-25T16:18:28.517Z,17.60
2018-08-25T16:20:33.270Z,17.50
2018-08-25T16:22:38.290Z,17.30
2018-08-25T16:24:43.157Z,17.50
2018-08-25T16:26:48.099Z,17.60
2018-08-25T16:28:53.001Z,17.90
2018-08-25T16:30:57.918Z,18.40
2018-08-25T16:33:03.211Z,19.00
2018-08-25T16:35:09.460Z,19.00
2018-08-25T16:37:16.430Z,19.00
2018-08-25T16:39:21.225Z,19.10
2018-08-25T16:41:26.408Z,19.40
2018-08-25T16:43:32.393Z,19.30
2018-08-25T16:45:37.553Z,19.10
2018-08-25T16:47:43.234Z,19.30
2018-08-25T16:49:48.277Z,19.10
2018-08-25T16:51:53.476Z,18.60
2018-08-25T16:53:58.242Z,18.40
2018-08-25T16:56:03.421Z,18.20
2018-08-25T16:58:31.093Z,18.60
2018-08-25T17:00:35.993Z,18.70
2018-08-25T17:02:41.368Z,18.70
2018-08-25T17:04:46.410Z,18.60
2018-08-25T17:06:51.390Z,18.50
2018-08-25T17:08:56.574Z,18.50
2018-08-25T17:11:01.427Z,18.40
2018-08-25T17:13:06.615Z,18.30
2018-08-25T17:15:11.813Z,18.20
2018-08-25T17:17:16.530Z,18.00
2018-08-25T17:19:21.788Z,17.80
2018-08-25T17:21:26.776Z,17.60
2018-08-25T17:23:31.718Z,17.50
2018-08-25T17:25:36.950Z,17.40
2018-08-25T17:27:42.503Z,17.40
2018-08-25T17:29:48.643Z,17.40
2018-08-25T17:31:54.719Z,17.30
2018-08-25T17:34:00.710Z,17.10
2018-08-25T17:36:05.814Z,17.10
2018-08-25T17:38:11.039Z,17.20
2018-08-25T17:40:16.172Z,16.80
2018-08-25T17:42:21.350Z,16.30
2018-08-25T17:44:28.071Z,15.90
2018-08-25T17:46:33.821Z,15.50
2018-08-25T17:48:41.563Z,15.10
2018-08-25T17:50:49.573Z,14.90
2018-08-25T17:52:55.625Z,14.80
2018-08-25T17:55:00.610Z,14.60
2018-08-25T17:57:06.765Z,14.60
2018-08-25T17:59:11.626Z,14.60
2018-08-25T18:01:16.686Z,14.60
2018-08-25T18:03:21.740Z,14.70
2018-08-25T18:05:27.909Z,14.60
2018-08-25T18:07:33.087Z,14.40
2018-08-25T18:09:38.823Z,14.40
2018-08-25T18:11:43.953Z,14.40
2018-08-25T18:16:02.372Z,14.50
2018-08-25T18:18:07.635Z,14.50
2018-08-25T18:20:13.070Z,14.50
2018-08-25T18:22:18.623Z,14.60
2018-08-25T18:24:23.620Z,14.70
2018-08-25T18:26:28.733Z,14.70
2018-08-25T18:28:33.716Z,14.80
2018-08-25T18:30:38.475Z,14.80
2018-08-25T18:32:43.459Z,14.90
2018-08-25T18:34:48.409Z,14.80
2018-08-25T18:36:56.749Z,14.70
2018-08-25T18:39:02.921Z,14.70
2018-08-25T18:41:13.119Z,14.80
2018-08-25T18:43:19.062Z,14.70
2018-08-25T18:45:26.065Z,14.60
2018-08-25T18:47:34.085Z,14.50
2018-08-25T18:49:39.925Z,14.60
2018-08-25T18:51:47.717Z,14.70
2018-08-25T18:53:54.927Z,14.60
2018-08-25T18:56:01.224Z,14.60
2018-08-25T18:58:08.210Z,14.50
2018-08-25T19:00:14.978Z,14.50
2018-08-25T19:02:20.615Z,14.40
2018-08-25T19:04:28.040Z,14.30
2018-08-25T19:06:34.330Z,14.40
2018-08-25T19:08:40.991Z,14.30
2018-08-25T19:10:46.842Z,14.40
2018-08-25T19:12:51.961Z,14.40
2018-08-25T19:14:57.042Z,14.30
2018-08-25T19:17:01.845Z,14.20
2018-08-25T19:19:06.828Z,14.20
2018-08-25T19:21:13.793Z,14.20
2018-08-25T19:23:18.940Z,14.20
2018-08-25T19:25:24.148Z,14.10
2018-08-25T19:27:31.369Z,14.20
2018-08-25T19:29:36.936Z,14.20
2018-08-25T19:31:42.297Z,14.20
2018-08-25T19:33:47.571Z,14.30
2018-08-25T19:35:52.744Z,14.30
2018-08-25T19:37:58.106Z,14.10
2018-08-25T19:40:03.578Z,14.10
2018-08-25T19:42:09.150Z,14.10
2018-08-25T19:44:14.268Z,14.10
2018-08-25T19:46:19.570Z,14.10
2018-08-25T19:48:26.015Z,14.10
2018-08-25T19:50:31.181Z,14.10
2018-08-25T19:52:36.485Z,14.10
2018-08-25T19:54:41.673Z,14.10
2018-08-25T19:56:49.371Z,14.10
2018-08-25T19:58:57.320Z,14.20
2018-08-25T20:01:02.484Z,14.20
2018-08-25T20:03:07.573Z,14.20
2018-08-25T20:05:12.904Z,14.20
2018-08-25T20:07:18.291Z,14.10
2018-08-25T20:09:23.283Z,14.20
2018-08-25T20:11:29.339Z,14.30
2018-08-25T20:13:34.585Z,14.20
2018-08-25T20:15:40.867Z,14.20
2018-08-25T20:17:46.987Z,14.20
2018-08-25T20:19:52.086Z,14.20
2018-08-25T20:21:57.007Z,14.10
2018-08-25T20:24:03.216Z,14.20
2018-08-25T20:26:08.425Z,14.10
2018-08-25T20:28:13.622Z,14.10
2018-08-25T20:30:25.199Z,14.10
2018-08-25T20:32:30.129Z,14.20
2018-08-25T20:34:35.055Z,14.10
2018-08-25T20:36:39.922Z,14.20
2018-08-25T20:38:44.998Z,14.10
2018-08-25T20:40:50.019Z,14.20
2018-08-25T20:42:54.962Z,14.30
2018-08-25T20:45:00.016Z,14.30
2018-08-25T20:47:05.079Z,14.30
2018-08-25T20:49:10.012Z,14.30
2018-08-25T20:51:14.829Z,14.20
2018-08-25T20:53:19.712Z,14.10
2018-08-25T20:55:24.735Z,14.10
2018-08-25T20:57:29.645Z,14.00
2018-08-25T20:59:34.550Z,14.10
2018-08-25T21:01:39.350Z,14.00
2018-08-25T21:03:44.389Z,14.00
2018-08-25T21:05:49.262Z,13.90
2018-08-25T21:07:53.959Z,13.90
2018-08-25T21:09:58.777Z,13.80
2018-08-25T21:12:03.829Z,13.90
2018-08-25T21:14:08.681Z,13.80
2018-08-25T21:16:13.474Z,13.90
2018-08-25T21:18:18.285Z,14.10
2018-08-25T21:20:23.360Z,14.10
2018-08-25T21:22:28.163Z,14.10
2018-08-25T21:24:32.946Z,14.10
2018-08-25T21:26:37.785Z,14.10
2018-08-25T21:28:42.518Z,14.20
2018-08-25T21:30:47.330Z,14.10
2018-08-25T21:32:55.038Z,14.10
2018-08-25T21:34:59.828Z,14.00
2018-08-25T21:37:04.643Z,14.00
2018-08-25T21:39:11.504Z,14.10
2018-08-25T21:41:16.274Z,14.20
2018-08-25T21:43:20.982Z,14.10
2018-08-25T21:45:26.046Z,14.20
2018-08-25T21:47:30.826Z,14.20
2018-08-25T21:49:35.654Z,14.10
2018-08-25T21:51:40.436Z,14.20
2018-08-25T21:53:45.146Z,14.20
2018-08-25T21:55:49.996Z,14.00
2018-08-25T21:57:54.793Z,13.90
2018-08-25T21:59:59.607Z,14.10
2018-08-25T22:02:04.408Z,13.90
2018-08-25T22:04:09.728Z,14.00
2018-08-25T22:06:14.421Z,14.00
2018-08-25T22:08:19.248Z,13.90
2018-08-25T22:10:24.028Z,13.80
2018-08-25T22:12:28.979Z,13.90
2018-08-25T22:14:33.729Z,13.80
2018-08-25T22:16:38.566Z,13.80
2018-08-25T22:18:43.343Z,13.70
2018-08-25T22:20:48.342Z,13.60
2018-08-25T22:22:53.078Z,13.70
2018-08-25T22:24:58.184Z,13.70
2018-08-25T22:27:03.022Z,13.90
2018-08-25T22:29:07.766Z,14.00
2018-08-25T22:31:12.488Z,13.90
2018-08-25T22:33:17.222Z,13.80
2018-08-25T22:35:21.984Z,13.80
2018-08-25T22:37:28.261Z,13.80
2018-08-25T22:39:33.072Z,13.90
2018-08-25T22:41:37.841Z,13.90
2018-08-25T22:43:42.610Z,13.90
2018-08-25T22:45:47.410Z,13.90
2018-08-25T22:47:52.105Z,13.90
2018-08-25T22:49:56.906Z,13.90
2018-08-25T22:52:01.818Z,13.80
2018-08-25T22:54:06.890Z,13.90
2018-08-25T22:56:11.861Z,13.80
2018-08-25T22:58:16.647Z,13.80
2018-08-25T23:00:22.147Z,13.80
2018-08-25T23:02:31.244Z,13.80
2018-08-25T23:04:36.403Z,13.80
2018-08-25T23:06:41.274Z,13.80
2018-08-25T23:08:46.937Z,13.80
2018-08-25T23:10:51.695Z,13.80
2018-08-25T23:12:56.493Z,13.70
2018-08-25T23:15:01.337Z,13.70
2018-08-25T23:17:06.123Z,13.60
2018-08-25T23:19:10.819Z,13.60
2018-08-25T23:21:15.821Z,13.70
2018-08-25T23:23:20.759Z,13.70
2018-08-25T23:25:25.481Z,13.60
2018-08-25T23:27:30.283Z,13.60
2018-08-25T23:29:35.169Z,13.60
2018-08-25T23:31:39.885Z,13.50
2018-08-25T23:33:44.698Z,13.40
2018-08-25T23:35:49.759Z,13.30
2018-08-25T23:37:54.487Z,13.30
2018-08-25T23:39:59.225Z,13.30
2018-08-25T23:42:04.247Z,13.40
2018-08-25T23:44:09.109Z,13.50
2018-08-25T23:46:13.851Z,13.50
2018-08-25T23:48:18.609Z,13.50
2018-08-25T23:50:23.351Z,13.60
2018-08-25T23:52:28.589Z,13.60
2018-08-25T23:54:33.449Z,13.60
2018-08-25T23:56:38.272Z,13.60
2018-08-25T23:58:43.028Z,13.50
